Time;durP1;ratioP1;P1;durP2;ratioP2;P2;SDS_P1;SDS_P2;PMS_P1;PMS_P2;Temp;Humidity;BMP_temperature;BMP_pressure;BME280_temperature;BME280_humidity;BME280_pressure;Samples;Min_cycle;Max_cycle;Signal;HPM_P1;HPM_P2
2022/10/19 00:05:09;;;;;;;11.05;2.35;;;8.70;99.90;;;;;;20693842;28;20050;-38
2022/10/19 00:15:10;;;;;;;2.95;0.85;;;8.80;99.90;;;;;;20676999;28;20057;-39
2022/10/19 00:25:11;;;;;;;2.78;0.85;;;8.60;99.90;;;;;;20667164;28;20334;-38
2022/10/19 00:35:12;;;;;;;1.77;0.80;;;8.50;99.90;;;;;;20680161;28;20183;-38
2022/10/19 00:45:15;;;;;;;2.17;0.98;;;8.40;99.90;;;;;;20688919;28;20183;-39
2022/10/19 00:55:17;;;;;;;5.50;1.95;;;8.30;99.90;;;;;;20685787;28;21899;-38
2022/10/19 01:05:18;;;;;;;2.35;1.65;;;8.30;99.90;;;;;;20687301;28;20169;-39
2022/10/19 01:15:39;;;;;;;1.75;0.90;;;8.20;99.90;;;;;;20686344;28;20187;-38
2022/10/19 01:26:07;;;;;;;2.10;1.02;;;8.10;99.90;;;;;;20675241;28;20291;-38
2022/10/19 01:36:11;;;;;;;;;;;8.00;99.90;;;;;;20683223;28;20061;-39
2022/10/19 01:46:40;;;;;;;1.98;0.70;;;7.90;99.90;;;;;;20682526;28;20308;-38
2022/10/19 01:56:43;;;;;;;1.50;0.80;;;7.70;99.90;;;;;;20677825;28;20922;-39
2022/10/19 02:06:44;;;;;;;2.33;0.90;;;7.70;99.90;;;;;;20676769;28;20099;-39
2022/10/19 02:16:56;;;;;;;1.90;0.70;;;7.60;99.90;;;;;;20675506;28;20120;-38
2022/10/19 02:26:59;;;;;;;1.95;0.88;;;7.50;99.90;;;;;;20674090;28;20145;-39
2022/10/19 02:37:00;;;;;;;3.80;1.73;;;7.50;99.90;;;;;;20678118;28;20534;-38
2022/10/19 02:47:19;;;;;;;3.20;1.00;;;7.40;99.90;;;;;;20682111;28;20764;-38
2022/10/19 02:57:23;;;;;;;1.55;0.88;;;7.30;99.90;;;;;;20678480;28;20844;-38
2022/10/19 03:07:24;;;;;;;1.67;0.75;;;7.30;99.90;;;;;;20672250;28;20137;-38
2022/10/19 03:17:25;;;;;;;1.92;1.33;;;7.20;99.90;;;;;;20667794;28;20065;-38
2022/10/19 03:27:26;;;;;;;1.92;1.40;;;7.20;99.90;;;;;;20689763;28;20057;-38
2022/10/19 03:37:27;;;;;;;2.20;1.00;;;7.20;99.90;;;;;;20675063;28;20526;-39
2022/10/19 03:47:28;;;;;;;2.38;1.00;;;7.30;99.90;;;;;;20682096;28;20076;-39
2022/10/19 03:57:29;;;;;;;1.83;0.98;;;7.20;99.90;;;;;;20675745;28;20438;-38
2022/10/19 04:07:30;;;;;;;2.88;1.20;;;7.30;99.90;;;;;;20673219;28;20399;-39
2022/10/19 04:17:31;;;;;;;3.70;1.70;;;7.20;99.90;;;;;;20669372;28;20053;-39
2022/10/19 04:27:32;;;;;;;1.75;0.93;;;7.00;99.90;;;;;;20676863;28;20061;-39
2022/10/19 04:37:33;;;;;;;3.13;1.55;;;7.00;99.90;;;;;;20675191;28;20047;-38
2022/10/19 04:47:34;;;;;;;3.30;1.55;;;7.00;99.90;;;;;;20669889;28;20101;-38
2022/10/19 04:57:35;;;;;;;2.75;1.13;;;7.00;99.90;;;;;;20657077;28;20057;-38
2022/10/19 05:07:36;;;;;;;5.65;2.22;;;7.00;99.90;;;;;;20678145;28;20049;-38
2022/10/19 05:17:37;;;;;;;4.22;1.83;;;7.10;99.90;;;;;;20680189;28;20116;-39
2022/10/19 05:27:38;;;;;;;1.95;0.90;;;7.20;99.90;;;;;;20671139;28;20084;-38
2022/10/19 05:37:39;;;;;;;4.68;1.00;;;7.20;99.90;;;;;;20691907;28;20081;-39
2022/10/19 05:47:40;;;;;;;13.30;1.13;;;7.10;99.90;;;;;;20675164;28;20079;-38
2022/10/19 05:57:41;;;;;;;2.28;1.23;;;7.10;99.90;;;;;;20683086;28;20041;-38
2022/10/19 06:07:42;;;;;;;2.47;0.90;;;7.10;99.90;;;;;;20694734;28;20063;-39
2022/10/19 06:17:43;;;;;;;9.70;4.65;;;7.10;99.90;;;;;;20686045;28;20042;-38
2022/10/19 06:27:45;;;;;;;8.80;4.68;;;7.10;99.90;;;;;;20681193;28;20096;-39
2022/10/19 06:37:46;;;;;;;6.18;1.98;;;7.10;99.90;;;;;;20697749;28;20045;-39
2022/10/19 06:47:47;;;;;;;3.03;1.20;;;7.10;99.90;;;;;;20684737;28;20057;-38
2022/10/19 06:57:48;;;;;;;2.10;1.10;;;7.10;99.90;;;;;;20680198;28;20041;-38
2022/10/19 07:07:49;;;;;;;3.97;1.35;;;7.10;99.90;;;;;;20679720;28;20168;-39
2022/10/19 07:17:51;;;;;;;9.35;3.72;;;7.30;99.90;;;;;;20681582;28;20048;-39
2022/10/19 07:27:52;;;;;;;5.50;2.22;;;7.50;99.90;;;;;;20691663;28;20108;-39
2022/10/19 07:37:53;;;;;;;2.60;0.98;;;7.80;99.90;;;;;;20677602;28;20042;-38
2022/10/19 07:47:55;;;;;;;2.35;0.77;;;8.10;99.90;;;;;;20677969;28;20049;-39
2022/10/19 07:58:00;;;;;;;1.10;0.60;;;8.30;99.90;;;;;;20669604;28;20412;-39
2022/10/19 08:08:01;;;;;;;1.95;0.90;;;8.50;99.90;;;;;;20687613;28;20454;-39
2022/10/19 08:18:02;;;;;;;6.00;2.47;;;8.90;99.90;;;;;;20690684;28;20347;-39
2022/10/19 08:28:03;;;;;;;2.33;1.20;;;9.30;99.90;;;;;;20655586;28;20398;-39
2022/10/19 08:38:04;;;;;;;4.43;1.75;;;9.70;99.90;;;;;;20682355;28;20191;-39
2022/10/19 08:48:26;;;;;;;2.17;0.95;;;10.10;99.90;;;;;;20668114;28;20652;-39
2022/10/19 08:59:05;;;;;;;2.22;0.50;;;10.40;99.90;;;;;;20679418;28;20100;-39
2022/10/19 09:09:12;;;;;;;7.93;2.23;;;10.70;99.90;;;;;;20652524;28;20097;-39
2022/10/19 09:19:31;;;;;;;3.23;1.03;;;10.90;99.90;;;;;;20690534;28;20084;-39
2022/10/19 09:29:44;;;;;;;2.58;1.30;;;11.10;99.90;;;;;;20683649;28;20704;-39
2022/10/19 09:39:45;;;;;;;1.98;0.60;;;11.40;99.90;;;;;;20680700;28;20172;-39
2022/10/19 09:49:47;;;;;;;34.38;1.77;;;11.90;99.90;;;;;;20673081;28;20497;-39
2022/10/19 09:59:52;;;;;;;10.32;1.70;;;12.20;99.90;;;;;;20699725;28;20062;-39
2022/10/19 10:09:53;;;;;;;1.80;0.50;;;12.40;99.90;;;;;;20693682;28;20065;-40
2022/10/19 10:19:58;;;;;;;4.93;1.55;;;12.70;99.90;;;;;;20698190;28;20033;-39
2022/10/19 10:30:03;;;;;;;0.75;0.30;;;13.00;99.90;;;;;;20695725;28;20093;-39
2022/10/19 10:40:14;;;;;;;1.13;0.50;;;13.20;99.90;;;;;;20699011;28;20625;-39
2022/10/19 10:50:22;;;;;;;0.82;0.20;;;13.70;99.90;;;;;;20683328;28;20096;-38
2022/10/19 11:00:23;;;;;;;0.85;0.20;;;13.90;99.90;;;;;;20675534;28;21582;-38
2022/10/19 11:10:33;;;;;;;0.73;0.30;;;14.50;99.90;;;;;;20676877;28;20777;-39
2022/10/19 11:20:37;;;;;;;0.85;0.20;;;15.10;99.90;;;;;;20680926;28;20853;-39
2022/10/19 11:31:05;;;;;;;0.93;0.55;;;15.50;99.90;;;;;;20686223;28;20747;-39
2022/10/19 11:41:16;;;;;;;1.07;0.20;;;15.90;99.90;;;;;;20674254;28;20134;-39
2022/10/19 11:51:26;;;;;;;2.28;0.43;;;16.20;99.90;;;;;;20679070;28;20872;-39
2022/10/19 12:01:32;;;;;;;1.00;0.32;;;16.50;99.90;;;;;;20668017;28;20516;-39
2022/10/19 12:11:47;;;;;;;1.13;0.17;;;17.00;99.90;;;;;;20682593;28;20846;-39
2022/10/19 12:21:50;;;;;;;1.45;0.50;;;17.10;99.90;;;;;;20697796;28;20589;-37
2022/10/19 12:31:53;;;;;;;0.95;0.63;;;17.70;99.90;;;;;;20682539;28;20168;-37
2022/10/19 12:42:12;;;;;;;1.38;0.57;;;17.70;99.90;;;;;;20691049;28;20215;-37
2022/10/19 12:52:15;;;;;;;2.53;0.60;;;17.70;99.90;;;;;;20689224;28;20110;-37
2022/10/19 13:02:30;;;;;;;0.73;0.25;;;17.70;99.90;;;;;;20686551;28;20803;-37
2022/10/19 13:12:45;;;;;;;1.13;0.45;;;18.00;99.90;;;;;;20684785;28;21812;-37
2022/10/19 13:22:59;;;;;;;0.57;0.22;;;18.50;99.80;;;;;;20675769;28;20243;-37
2022/10/19 13:33:30;;;;;;;0.77;0.25;;;18.40;99.90;;;;;;20683224;28;20212;-37
2022/10/19 13:43:50;;;;;;;1.38;0.73;;;19.10;99.90;;;;;;20685820;28;20401;-37
2022/10/19 13:54:29;;;;;;;0.50;0.17;;;19.20;99.40;;;;;;20674774;28;20573;-37
2022/10/19 14:05:00;;;;;;;0.75;0.30;;;19.20;99.30;;;;;;20669647;28;21510;-37
2022/10/19 14:15:18;;;;;;;1.35;0.50;;;19.60;99.80;;;;;;20669891;28;20187;-37
2022/10/19 14:25:26;;;;;;;1.27;0.50;;;19.20;99.90;;;;;;20679902;28;20636;-38
2022/10/19 14:35:32;;;;;;;2.25;1.02;;;19.40;98.60;;;;;;20678862;28;20628;-37
2022/10/19 14:45:32;;;;;;;0.85;0.40;;;18.40;99.90;;;;;;20667672;28;21946;-37
2022/10/19 14:55:38;;;;;;;0.90;0.20;;;17.40;99.90;;;;;;20663233;28;20078;-37
2022/10/19 15:05:45;;;;;;;1.92;0.38;;;16.60;99.90;;;;;;20685433;28;20132;-39
2022/10/19 15:15:50;;;;;;;1.27;0.40;;;16.10;99.90;;;;;;20670699;28;20144;-39
2022/10/19 15:26:02;;;;;;;1.38;0.50;;;15.60;99.90;;;;;;20667081;28;20103;-39
2022/10/19 15:36:07;;;;;;;0.70;0.40;;;15.20;99.90;;;;;;20668927;28;20093;-39
2022/10/19 15:46:38;;;;;;;0.65;0.17;;;14.90;99.90;;;;;;20664548;28;20124;-39
2022/10/19 15:56:39;;;;;;;1.13;0.40;;;14.50;99.90;;;;;;20682813;28;20718;-39
2022/10/19 16:06:42;;;;;;;1.98;0.73;;;14.40;99.90;;;;;;20674345;28;20136;-39
2022/10/19 16:16:43;;;;;;;2.80;0.38;;;14.20;99.90;;;;;;20659775;28;20111;-47
2022/10/19 16:26:44;;;;;;;1.65;0.40;;;13.90;99.90;;;;;;20678975;28;20050;-39
2022/10/19 16:36:45;;;;;;;2.22;0.85;;;13.70;99.90;;;;;;20694534;28;20104;-39
2022/10/19 16:46:46;;;;;;;1.35;0.50;;;13.50;99.90;;;;;;20681964;28;20073;-39
2022/10/19 16:56:47;;;;;;;0.70;0.30;;;13.40;99.90;;;;;;20682273;28;20060;-39
2022/10/19 17:06:48;;;;;;;1.55;0.70;;;13.20;99.90;;;;;;20701736;28;20303;-39
2022/10/19 17:16:49;;;;;;;5.13;0.60;;;13.00;99.90;;;;;;20691464;28;20119;-39
2022/10/19 17:26:51;;;;;;;1.45;0.38;;;13.00;99.90;;;;;;20688802;28;20056;-39
2022/10/19 17:36:53;;;;;;;10.90;1.58;;;12.80;99.90;;;;;;20696566;28;20494;-39
2022/10/19 17:46:54;;;;;;;3.92;1.23;;;12.70;99.90;;;;;;20697074;28;20124;-39
2022/10/19 17:56:55;;;;;;;4.18;1.45;;;12.60;99.90;;;;;;20676905;28;22494;-39
2022/10/19 18:06:56;;;;;;;2.00;0.68;;;12.40;99.90;;;;;;20678100;28;20455;-39
2022/10/19 18:16:57;;;;;;;3.42;1.13;;;12.40;99.90;;;;;;20685859;28;20477;-38
2022/10/19 18:26:58;;;;;;;2.15;0.77;;;12.20;99.90;;;;;;20675264;28;20509;-38
2022/10/19 18:36:59;;;;;;;3.28;0.80;;;12.20;99.90;;;;;;20671913;28;20049;-38
2022/10/19 18:47:00;;;;;;;2.80;0.90;;;12.20;99.90;;;;;;20682981;28;20132;-38
2022/10/19 18:57:01;;;;;;;3.28;1.15;;;12.10;99.90;;;;;;20670376;28;20192;-39
2022/10/19 19:07:02;;;;;;;2.13;0.93;;;12.00;99.90;;;;;;20676222;28;20061;-39
2022/10/19 19:17:03;;;;;;;4.13;1.00;;;11.90;99.90;;;;;;20674609;28;20057;-39
2022/10/19 19:27:04;;;;;;;3.30;1.00;;;11.80;99.90;;;;;;20661824;28;20117;-39
2022/10/19 19:37:05;;;;;;;4.88;1.10;;;11.70;99.90;;;;;;20674857;28;20124;-38
2022/10/19 19:47:07;;;;;;;4.38;1.45;;;11.70;99.90;;;;;;20679670;28;20042;-39
2022/10/19 19:57:08;;;;;;;1.15;0.60;;;11.60;99.90;;;;;;20679039;28;20166;-39
2022/10/19 20:07:09;;;;;;;1.98;1.02;;;11.50;99.90;;;;;;20697108;28;20030;-39
2022/10/19 20:17:10;;;;;;;2.92;1.45;;;11.40;99.90;;;;;;20676251;28;20046;-39
2022/10/19 20:27:11;;;;;;;2.20;0.95;;;11.30;99.90;;;;;;20677980;28;20049;-39
2022/10/19 20:37:12;;;;;;;1.75;1.15;;;11.10;99.90;;;;;;20691015;28;20056;-38
2022/10/19 20:47:13;;;;;;;4.22;0.70;;;11.00;99.90;;;;;;20703282;28;20046;-39
2022/10/19 20:57:14;;;;;;;3.83;0.93;;;10.70;99.90;;;;;;20704501;28;20528;-39
2022/10/19 21:07:15;;;;;;;1.98;0.73;;;10.50;99.90;;;;;;20690186;28;20869;-39
2022/10/19 21:17:16;;;;;;;3.58;1.02;;;10.70;99.90;;;;;;20711436;28;20123;-39
2022/10/19 21:27:17;;;;;;;3.00;1.30;;;10.50;99.90;;;;;;20706845;28;20045;-40
2022/10/19 21:37:18;;;;;;;2.20;0.65;;;10.40;99.90;;;;;;20712908;28;20046;-38
2022/10/19 21:47:19;;;;;;;2.72;0.88;;;10.30;99.90;;;;;;20699736;28;20038;-39
2022/10/19 21:57:20;;;;;;;1.90;1.00;;;10.30;99.90;;;;;;20705019;28;20105;-39
2022/10/19 22:07:21;;;;;;;5.05;1.35;;;10.20;99.90;;;;;;20711228;28;20046;-39
2022/10/19 22:17:22;;;;;;;2.25;1.33;;;10.20;99.90;;;;;;20695391;28;20045;-39
2022/10/19 22:27:23;;;;;;;2.45;0.90;;;10.10;99.90;;;;;;20698515;28;20046;-39
2022/10/19 22:37:24;;;;;;;6.70;1.90;;;10.00;99.90;;;;;;20675412;28;20113;-39
2022/10/19 22:47:26;;;;;;;4.05;0.95;;;9.90;99.90;;;;;;20685176;28;20089;-39
2022/10/19 22:57:27;;;;;;;1.92;0.85;;;9.80;99.90;;;;;;20674769;28;20509;-39
2022/10/19 23:07:28;;;;;;;1.05;0.65;;;9.80;99.90;;;;;;20681849;28;20485;-39
2022/10/19 23:17:29;;;;;;;1.98;1.02;;;9.70;99.90;;;;;;20687629;28;20056;-39
2022/10/19 23:27:30;;;;;;;2.80;1.00;;;9.70;99.90;;;;;;20677825;28;20057;-39
2022/10/19 23:37:32;;;;;;;1.65;0.75;;;9.80;99.90;;;;;;20689963;28;20053;-39
2022/10/19 23:47:33;;;;;;;4.00;0.98;;;9.60;99.90;;;;;;20688049;28;20077;-39
2022/10/19 23:57:34;;;;;;;2.38;0.95;;;9.70;99.90;;;;;;20670341;28;20049;-39
